Aviation Digital Data Service (ADDS)

Output produced by METARs form (1801 UTC 19 October 2017)
found at http://www.aviationweather.gov/adds/metars/
 
FMCH 191700Z 12007KT 9999 FEW020 27/23 Q1013 NOSIG
TAF FMCH 191700Z 1918/2024 09005KT 9999 FEW020 
     BECMG 2003/2005 08015G25KT 
     BECMG 2016/2018 09004KT